sensor_id;sensor_type;location;lat;lon;timestamp;temperature;humidity
29539;DHT22;16482;51.046;4.498;2022-08-19T00:02:17;26.60;54.10
29539;DHT22;16482;51.046;4.498;2022-08-19T00:04:42;26.60;54.10
29539;DHT22;16482;51.046;4.498;2022-08-19T00:07:11;26.50;54.10
29539;DHT22;16482;51.046;4.498;2022-08-19T00:09:38;26.50;54.10
29539;DHT22;16482;51.046;4.498;2022-08-19T00:12:04;26.50;54.00
29539;DHT22;16482;51.046;4.498;2022-08-19T00:14:30;26.60;54.00
29539;DHT22;16482;51.046;4.498;2022-08-19T00:17:00;26.60;54.00
29539;DHT22;16482;51.046;4.498;2022-08-19T00:19:26;26.60;54.00
29539;DHT22;16482;51.046;4.498;2022-08-19T00:21:52;26.60;53.90
29539;DHT22;16482;51.046;4.498;2022-08-19T00:24:18;26.50;53.90
29539;DHT22;16482;51.046;4.498;2022-08-19T00:26:45;26.50;54.00
29539;DHT22;16482;51.046;4.498;2022-08-19T00:29:13;26.50;53.90
29539;DHT22;16482;51.046;4.498;2022-08-19T00:31:40;26.50;54.00
29539;DHT22;16482;51.046;4.498;2022-08-19T00:34:07;26.50;54.00
29539;DHT22;16482;51.046;4.498;2022-08-19T00:36:33;26.50;54.00
29539;DHT22;16482;51.046;4.498;2022-08-19T00:39:02;26.60;54.00
29539;DHT22;16482;51.046;4.498;2022-08-19T00:41:37;26.60;53.90
29539;DHT22;16482;51.046;4.498;2022-08-19T00:44:08;26.60;53.80
29539;DHT22;16482;51.046;4.498;2022-08-19T00:46:37;26.50;53.70
29539;DHT22;16482;51.046;4.498;2022-08-19T00:49:10;26.50;53.70
29539;DHT22;16482;51.046;4.498;2022-08-19T00:51:42;26.50;53.70
29539;DHT22;16482;51.046;4.498;2022-08-19T00:54:08;26.50;53.60
29539;DHT22;16482;51.046;4.498;2022-08-19T00:56:35;26.50;53.60
29539;DHT22;16482;51.046;4.498;2022-08-19T00:59:01;26.60;53.60
29539;DHT22;16482;51.046;4.498;2022-08-19T01:01:27;26.50;53.50
29539;DHT22;16482;51.046;4.498;2022-08-19T01:03:53;26.50;53.60
29539;DHT22;16482;51.046;4.498;2022-08-19T01:06:28;26.50;53.60
29539;DHT22;16482;51.046;4.498;2022-08-19T01:08:58;26.50;53.50
29539;DHT22;16482;51.046;4.498;2022-08-19T01:11:27;26.50;53.50
29539;DHT22;16482;51.046;4.498;2022-08-19T01:13:57;26.50;53.50
29539;DHT22;16482;51.046;4.498;2022-08-19T01:16:27;26.50;53.50
29539;DHT22;16482;51.046;4.498;2022-08-19T01:18:54;26.50;53.40
29539;DHT22;16482;51.046;4.498;2022-08-19T01:21:37;26.50;53.50
29539;DHT22;16482;51.046;4.498;2022-08-19T01:24:06;26.50;53.50
29539;DHT22;16482;51.046;4.498;2022-08-19T01:26:40;26.50;53.40
29539;DHT22;16482;51.046;4.498;2022-08-19T01:29:07;26.50;53.40
29539;DHT22;16482;51.046;4.498;2022-08-19T01:31:34;26.50;53.40
29539;DHT22;16482;51.046;4.498;2022-08-19T01:34:01;26.50;53.30
29539;DHT22;16482;51.046;4.498;2022-08-19T01:36:40;26.50;53.30
29539;DHT22;16482;51.046;4.498;2022-08-19T01:39:10;26.60;53.20
29539;DHT22;16482;51.046;4.498;2022-08-19T01:41:36;26.50;53.30
29539;DHT22;16482;51.046;4.498;2022-08-19T01:44:03;26.50;53.30
29539;DHT22;16482;51.046;4.498;2022-08-19T01:46:30;26.50;53.30
29539;DHT22;16482;51.046;4.498;2022-08-19T01:48:57;26.50;53.20
29539;DHT22;16482;51.046;4.498;2022-08-19T01:51:23;26.50;53.20
29539;DHT22;16482;51.046;4.498;2022-08-19T01:53:50;26.50;53.10
29539;DHT22;16482;51.046;4.498;2022-08-19T01:56:17;26.50;53.10
29539;DHT22;16482;51.046;4.498;2022-08-19T01:59:03;26.50;53.10
29539;DHT22;16482;51.046;4.498;2022-08-19T02:01:30;26.50;53.10
29539;DHT22;16482;51.046;4.498;2022-08-19T02:03:58;26.40;53.20
29539;DHT22;16482;51.046;4.498;2022-08-19T02:06:29;26.40;53.20
29539;DHT22;16482;51.046;4.498;2022-08-19T02:08:58;26.50;53.20
29539;DHT22;16482;51.046;4.498;2022-08-19T02:11:34;26.40;53.30
29539;DHT22;16482;51.046;4.498;2022-08-19T02:14:03;26.40;53.20
29539;DHT22;16482;51.046;4.498;2022-08-19T02:16:33;26.50;53.20
29539;DHT22;16482;51.046;4.498;2022-08-19T02:18:59;26.50;53.20
29539;DHT22;16482;51.046;4.498;2022-08-19T02:21:37;26.50;53.20
29539;DHT22;16482;51.046;4.498;2022-08-19T02:24:03;26.50;53.10
29539;DHT22;16482;51.046;4.498;2022-08-19T02:26:36;26.40;53.10
29539;DHT22;16482;51.046;4.498;2022-08-19T02:29:02;26.50;53.10
29539;DHT22;16482;51.046;4.498;2022-08-19T02:31:36;26.40;53.10
29539;DHT22;16482;51.046;4.498;2022-08-19T02:34:02;26.50;53.10
29539;DHT22;16482;51.046;4.498;2022-08-19T02:36:37;26.50;53.10
29539;DHT22;16482;51.046;4.498;2022-08-19T02:39:03;26.50;53.10
29539;DHT22;16482;51.046;4.498;2022-08-19T02:41:33;26.40;53.10
29539;DHT22;16482;51.046;4.498;2022-08-19T02:44:03;26.40;53.10
29539;DHT22;16482;51.046;4.498;2022-08-19T02:46:33;26.40;53.10
29539;DHT22;16482;51.046;4.498;2022-08-19T02:49:05;26.40;53.00
29539;DHT22;16482;51.046;4.498;2022-08-19T02:51:35;26.40;53.00
29539;DHT22;16482;51.046;4.498;2022-08-19T02:54:07;26.40;53.00
29539;DHT22;16482;51.046;4.498;2022-08-19T02:56:38;26.40;53.00
29539;DHT22;16482;51.046;4.498;2022-08-19T02:59:04;26.40;53.00
29539;DHT22;16482;51.046;4.498;2022-08-19T03:01:37;26.40;53.00
29539;DHT22;16482;51.046;4.498;2022-08-19T03:04:04;26.40;53.00
29539;DHT22;16482;51.046;4.498;2022-08-19T03:06:33;26.40;52.90
29539;DHT22;16482;51.046;4.498;2022-08-19T03:09:01;26.40;52.90
29539;DHT22;16482;51.046;4.498;2022-08-19T03:11:34;26.40;52.90
29539;DHT22;16482;51.046;4.498;2022-08-19T03:14:04;26.40;52.90
29539;DHT22;16482;51.046;4.498;2022-08-19T03:16:40;26.40;52.80
29539;DHT22;16482;51.046;4.498;2022-08-19T03:19:06;26.40;52.80
29539;DHT22;16482;51.046;4.498;2022-08-19T03:21:33;26.40;52.70
29539;DHT22;16482;51.046;4.498;2022-08-19T03:24:05;26.30;52.70
29539;DHT22;16482;51.046;4.498;2022-08-19T03:26:32;26.40;52.70
29539;DHT22;16482;51.046;4.498;2022-08-19T03:29:01;26.40;52.60
29539;DHT22;16482;51.046;4.498;2022-08-19T03:31:27;26.40;52.60
29539;DHT22;16482;51.046;4.498;2022-08-19T03:33:53;26.40;53.20
29539;DHT22;16482;51.046;4.498;2022-08-19T03:36:25;26.40;52.50
29539;DHT22;16482;51.046;4.498;2022-08-19T03:39:02;26.30;52.40
29539;DHT22;16482;51.046;4.498;2022-08-19T03:41:35;26.40;52.50
29539;DHT22;16482;51.046;4.498;2022-08-19T03:44:04;26.30;52.40
29539;DHT22;16482;51.046;4.498;2022-08-19T03:46:33;26.40;52.40
29539;DHT22;16482;51.046;4.498;2022-08-19T03:49:08;26.40;52.30
29539;DHT22;16482;51.046;4.498;2022-08-19T03:51:37;26.40;52.30
29539;DHT22;16482;51.046;4.498;2022-08-19T03:54:06;26.40;52.30
29539;DHT22;16482;51.046;4.498;2022-08-19T03:56:35;26.40;52.20
29539;DHT22;16482;51.046;4.498;2022-08-19T03:59:04;26.40;52.20
29539;DHT22;16482;51.046;4.498;2022-08-19T04:01:32;26.30;52.20
29539;DHT22;16482;51.046;4.498;2022-08-19T04:04:04;26.30;52.20
29539;DHT22;16482;51.046;4.498;2022-08-19T04:06:34;26.30;52.10
29539;DHT22;16482;51.046;4.498;2022-08-19T04:09:05;26.30;52.10
29539;DHT22;16482;51.046;4.498;2022-08-19T04:11:36;26.30;52.10
29539;DHT22;16482;51.046;4.498;2022-08-19T04:14:06;26.30;52.70
29539;DHT22;16482;51.046;4.498;2022-08-19T04:16:33;26.30;52.10
29539;DHT22;16482;51.046;4.498;2022-08-19T04:19:01;26.30;52.00
29539;DHT22;16482;51.046;4.498;2022-08-19T04:21:31;26.30;52.00
29539;DHT22;16482;51.046;4.498;2022-08-19T04:24:05;26.30;51.90
29539;DHT22;16482;51.046;4.498;2022-08-19T04:26:34;26.30;51.90
29539;DHT22;16482;51.046;4.498;2022-08-19T04:29:06;26.30;51.90
29539;DHT22;16482;51.046;4.498;2022-08-19T04:31:32;26.30;51.80
29539;DHT22;16482;51.046;4.498;2022-08-19T04:34:05;26.30;51.80
29539;DHT22;16482;51.046;4.498;2022-08-19T04:36:34;26.30;51.80
29539;DHT22;16482;51.046;4.498;2022-08-19T04:39:08;26.30;51.90
29539;DHT22;16482;51.046;4.498;2022-08-19T04:41:35;26.30;51.80
29539;DHT22;16482;51.046;4.498;2022-08-19T04:44:19;26.30;51.70
29539;DHT22;16482;51.046;4.498;2022-08-19T04:46:46;26.30;51.70
29539;DHT22;16482;51.046;4.498;2022-08-19T04:49:13;26.30;51.70
29539;DHT22;16482;51.046;4.498;2022-08-19T04:51:42;26.30;51.70
29539;DHT22;16482;51.046;4.498;2022-08-19T04:54:08;26.30;51.70
29539;DHT22;16482;51.046;4.498;2022-08-19T04:56:34;26.30;51.80
29539;DHT22;16482;51.046;4.498;2022-08-19T04:59:00;26.20;51.70
29539;DHT22;16482;51.046;4.498;2022-08-19T05:01:33;26.20;51.70
29539;DHT22;16482;51.046;4.498;2022-08-19T05:04:06;26.20;51.60
29539;DHT22;16482;51.046;4.498;2022-08-19T05:06:34;26.20;51.70
29539;DHT22;16482;51.046;4.498;2022-08-19T05:09:04;26.30;51.60
29539;DHT22;16482;51.046;4.498;2022-08-19T05:11:35;26.30;51.50
29539;DHT22;16482;51.046;4.498;2022-08-19T05:14:08;26.30;51.50
29539;DHT22;16482;51.046;4.498;2022-08-19T05:16:34;26.30;51.60
29539;DHT22;16482;51.046;4.498;2022-08-19T05:19:00;26.30;51.60
29539;DHT22;16482;51.046;4.498;2022-08-19T05:21:45;26.20;51.60
29539;DHT22;16482;51.046;4.498;2022-08-19T05:24:30;26.20;51.60
29539;DHT22;16482;51.046;4.498;2022-08-19T05:26:56;26.20;51.60
29539;DHT22;16482;51.046;4.498;2022-08-19T05:29:25;26.20;51.60
29539;DHT22;16482;51.046;4.498;2022-08-19T05:31:55;26.20;51.60
29539;DHT22;16482;51.046;4.498;2022-08-19T05:34:22;26.20;51.60
29539;DHT22;16482;51.046;4.498;2022-08-19T05:36:52;26.20;51.60
29539;DHT22;16482;51.046;4.498;2022-08-19T05:39:24;26.20;51.60
29539;DHT22;16482;51.046;4.498;2022-08-19T05:41:53;26.20;51.60
29539;DHT22;16482;51.046;4.498;2022-08-19T05:44:20;26.20;51.60
29539;DHT22;16482;51.046;4.498;2022-08-19T05:46:47;26.20;51.60
29539;DHT22;16482;51.046;4.498;2022-08-19T05:49:14;26.20;51.60
29539;DHT22;16482;51.046;4.498;2022-08-19T05:51:41;26.20;51.60
29539;DHT22;16482;51.046;4.498;2022-08-19T05:54:08;26.20;51.60
29539;DHT22;16482;51.046;4.498;2022-08-19T05:56:34;26.20;51.60
29539;DHT22;16482;51.046;4.498;2022-08-19T05:59:04;26.20;51.60
29539;DHT22;16482;51.046;4.498;2022-08-19T06:01:34;26.20;51.60
29539;DHT22;16482;51.046;4.498;2022-08-19T06:04:03;26.20;51.60
29539;DHT22;16482;51.046;4.498;2022-08-19T06:06:38;26.20;51.60
29539;DHT22;16482;51.046;4.498;2022-08-19T06:09:06;26.20;51.60
29539;DHT22;16482;51.046;4.498;2022-08-19T06:11:51;26.20;51.70
29539;DHT22;16482;51.046;4.498;2022-08-19T06:14:23;26.20;51.70
29539;DHT22;16482;51.046;4.498;2022-08-19T06:16:49;26.20;51.70
29539;DHT22;16482;51.046;4.498;2022-08-19T06:19:19;26.20;51.80
29539;DHT22;16482;51.046;4.498;2022-08-19T06:21:47;26.20;51.80
29539;DHT22;16482;51.046;4.498;2022-08-19T06:24:16;26.20;51.80
29539;DHT22;16482;51.046;4.498;2022-08-19T06:26:45;26.20;51.80
29539;DHT22;16482;51.046;4.498;2022-08-19T06:29:13;26.20;51.90
29539;DHT22;16482;51.046;4.498;2022-08-19T06:31:44;26.20;51.90
29539;DHT22;16482;51.046;4.498;2022-08-19T06:34:11;26.20;51.90
29539;DHT22;16482;51.046;4.498;2022-08-19T06:36:39;26.10;52.00
29539;DHT22;16482;51.046;4.498;2022-08-19T06:39:16;26.20;52.10
29539;DHT22;16482;51.046;4.498;2022-08-19T06:41:46;26.20;52.10
29539;DHT22;16482;51.046;4.498;2022-08-19T06:44:12;26.20;52.00
29539;DHT22;16482;51.046;4.498;2022-08-19T06:46:40;26.20;52.10
29539;DHT22;16482;51.046;4.498;2022-08-19T06:49:09;26.20;52.10
29539;DHT22;16482;51.046;4.498;2022-08-19T06:51:40;26.20;52.20
29539;DHT22;16482;51.046;4.498;2022-08-19T06:54:06;26.20;52.20
29539;DHT22;16482;51.046;4.498;2022-08-19T06:56:32;26.20;52.20
29539;DHT22;16482;51.046;4.498;2022-08-19T06:59:04;26.30;52.20
29539;DHT22;16482;51.046;4.498;2022-08-19T07:01:36;26.20;52.30
29539;DHT22;16482;51.046;4.498;2022-08-19T07:04:06;26.20;52.40
29539;DHT22;16482;51.046;4.498;2022-08-19T07:06:32;26.20;52.40
29539;DHT22;16482;51.046;4.498;2022-08-19T07:09:06;26.20;52.60
29539;DHT22;16482;51.046;4.498;2022-08-19T07:11:32;26.20;52.70
29539;DHT22;16482;51.046;4.498;2022-08-19T07:14:00;26.20;52.70
29539;DHT22;16482;51.046;4.498;2022-08-19T07:16:34;26.20;52.80
29539;DHT22;16482;51.046;4.498;2022-08-19T07:19:00;26.20;52.80
29539;DHT22;16482;51.046;4.498;2022-08-19T07:21:28;26.20;52.80
29539;DHT22;16482;51.046;4.498;2022-08-19T07:23:58;26.20;52.80
29539;DHT22;16482;51.046;4.498;2022-08-19T07:26:30;26.20;52.80
29539;DHT22;16482;51.046;4.498;2022-08-19T07:28:58;26.30;52.90
29539;DHT22;16482;51.046;4.498;2022-08-19T07:31:34;26.30;53.50
29539;DHT22;16482;51.046;4.498;2022-08-19T07:34:07;26.30;53.00
29539;DHT22;16482;51.046;4.498;2022-08-19T07:36:36;26.20;53.00
29539;DHT22;16482;51.046;4.498;2022-08-19T07:39:07;26.20;53.20
29539;DHT22;16482;51.046;4.498;2022-08-19T07:41:34;26.20;53.20
29539;DHT22;16482;51.046;4.498;2022-08-19T07:44:04;26.20;53.20
29539;DHT22;16482;51.046;4.498;2022-08-19T07:46:31;26.20;53.30
29539;DHT22;16482;51.046;4.498;2022-08-19T07:49:06;26.20;53.40
29539;DHT22;16482;51.046;4.498;2022-08-19T07:51:32;26.20;53.50
29539;DHT22;16482;51.046;4.498;2022-08-19T07:53:59;26.20;53.50
29539;DHT22;16482;51.046;4.498;2022-08-19T07:56:34;26.20;53.70
29539;DHT22;16482;51.046;4.498;2022-08-19T07:59:02;26.20;53.70
29539;DHT22;16482;51.046;4.498;2022-08-19T08:01:38;26.20;53.80
29539;DHT22;16482;51.046;4.498;2022-08-19T08:04:06;26.30;53.70
29539;DHT22;16482;51.046;4.498;2022-08-19T08:06:52;26.20;53.70
29539;DHT22;16482;51.046;4.498;2022-08-19T08:09:40;26.30;53.90
29539;DHT22;16482;51.046;4.498;2022-08-19T08:12:08;26.30;54.00
29539;DHT22;16482;51.046;4.498;2022-08-19T08:14:43;26.30;53.90
29539;DHT22;16482;51.046;4.498;2022-08-19T08:17:09;26.30;54.00
29539;DHT22;16482;51.046;4.498;2022-08-19T08:19:37;26.30;53.90
29539;DHT22;16482;51.046;4.498;2022-08-19T08:22:05;26.40;53.90
29539;DHT22;16482;51.046;4.498;2022-08-19T08:24:35;26.40;54.10
29539;DHT22;16482;51.046;4.498;2022-08-19T08:27:01;26.30;54.10
29539;DHT22;16482;51.046;4.498;2022-08-19T08:29:31;26.40;54.20
29539;DHT22;16482;51.046;4.498;2022-08-19T08:31:57;26.40;54.20
29539;DHT22;16482;51.046;4.498;2022-08-19T08:34:23;26.40;54.20
29539;DHT22;16482;51.046;4.498;2022-08-19T08:36:49;26.40;54.30
29539;DHT22;16482;51.046;4.498;2022-08-19T08:39:18;26.40;54.40
29539;DHT22;16482;51.046;4.498;2022-08-19T08:44:44;26.30;54.50
29539;DHT22;16482;51.046;4.498;2022-08-19T08:47:30;26.30;54.60
29539;DHT22;16482;51.046;4.498;2022-08-19T08:50:04;26.30;54.70
29539;DHT22;16482;51.046;4.498;2022-08-19T08:52:36;26.30;54.70
29539;DHT22;16482;51.046;4.498;2022-08-19T08:55:19;26.30;54.80
29539;DHT22;16482;51.046;4.498;2022-08-19T09:00:21;26.30;55.00
29539;DHT22;16482;51.046;4.498;2022-08-19T09:02:48;26.30;55.30
29539;DHT22;16482;51.046;4.498;2022-08-19T09:05:14;26.30;55.20
29539;DHT22;16482;51.046;4.498;2022-08-19T09:08:00;26.30;55.30
29539;DHT22;16482;51.046;4.498;2022-08-19T09:10:37;26.30;55.80
29539;DHT22;16482;51.046;4.498;2022-08-19T09:15:39;26.30;55.30
29539;DHT22;16482;51.046;4.498;2022-08-19T09:18:09;26.30;55.50
29539;DHT22;16482;51.046;4.498;2022-08-19T09:20:37;26.30;55.40
29539;DHT22;16482;51.046;4.498;2022-08-19T09:23:03;26.40;55.30
29539;DHT22;16482;51.046;4.498;2022-08-19T09:25:38;26.40;55.40
29539;DHT22;16482;51.046;4.498;2022-08-19T09:28:14;26.40;55.40
29539;DHT22;16482;51.046;4.498;2022-08-19T09:30:44;26.50;55.50
29539;DHT22;16482;51.046;4.498;2022-08-19T09:33:13;26.60;55.40
29539;DHT22;16482;51.046;4.498;2022-08-19T09:35:42;26.50;55.40
29539;DHT22;16482;51.046;4.498;2022-08-19T09:38:12;26.50;55.50
29539;DHT22;16482;51.046;4.498;2022-08-19T09:40:38;26.60;55.60
29539;DHT22;16482;51.046;4.498;2022-08-19T09:43:07;26.50;55.50
29539;DHT22;16482;51.046;4.498;2022-08-19T09:45:33;26.50;55.60
29539;DHT22;16482;51.046;4.498;2022-08-19T09:48:14;26.50;55.60
29539;DHT22;16482;51.046;4.498;2022-08-19T09:50:48;26.50;55.60
29539;DHT22;16482;51.046;4.498;2022-08-19T09:53:15;26.50;55.60
29539;DHT22;16482;51.046;4.498;2022-08-19T09:55:44;26.60;55.70
29539;DHT22;16482;51.046;4.498;2022-08-19T09:58:12;26.60;55.50
29539;DHT22;16482;51.046;4.498;2022-08-19T10:00:44;26.60;55.50
29539;DHT22;16482;51.046;4.498;2022-08-19T10:03:12;26.60;55.60
29539;DHT22;16482;51.046;4.498;2022-08-19T10:05:45;26.60;55.60
29539;DHT22;16482;51.046;4.498;2022-08-19T10:08:16;26.50;55.60
29539;DHT22;16482;51.046;4.498;2022-08-19T10:10:45;26.60;55.60
29539;DHT22;16482;51.046;4.498;2022-08-19T10:13:12;26.60;55.60
29539;DHT22;16482;51.046;4.498;2022-08-19T10:15:45;26.50;55.50
29539;DHT22;16482;51.046;4.498;2022-08-19T10:18:14;26.60;55.70
29539;DHT22;16482;51.046;4.498;2022-08-19T10:20:43;26.60;55.50
29539;DHT22;16482;51.046;4.498;2022-08-19T10:23:13;26.60;55.60
29539;DHT22;16482;51.046;4.498;2022-08-19T10:25:41;26.60;55.60
29539;DHT22;16482;51.046;4.498;2022-08-19T10:28:08;26.60;55.70
29539;DHT22;16482;51.046;4.498;2022-08-19T10:30:45;26.60;55.70
29539;DHT22;16482;51.046;4.498;2022-08-19T10:33:12;26.60;56.30
29539;DHT22;16482;51.046;4.498;2022-08-19T10:35:39;26.60;55.70
29539;DHT22;16482;51.046;4.498;2022-08-19T10:38:13;26.60;55.70
29539;DHT22;16482;51.046;4.498;2022-08-19T10:40:42;26.60;55.40
29539;DHT22;16482;51.046;4.498;2022-08-19T10:43:11;26.60;55.60
29539;DHT22;16482;51.046;4.498;2022-08-19T10:45:51;26.60;55.40
29539;DHT22;16482;51.046;4.498;2022-08-19T10:48:20;26.70;55.60
29539;DHT22;16482;51.046;4.498;2022-08-19T10:50:48;26.60;55.50
29539;DHT22;16482;51.046;4.498;2022-08-19T10:53:32;26.70;55.60
29539;DHT22;16482;51.046;4.498;2022-08-19T10:55:58;26.60;55.60
29539;DHT22;16482;51.046;4.498;2022-08-19T10:58:44;26.60;55.70
29539;DHT22;16482;51.046;4.498;2022-08-19T11:01:10;26.60;56.30
29539;DHT22;16482;51.046;4.498;2022-08-19T11:03:36;26.70;55.90
29539;DHT22;16482;51.046;4.498;2022-08-19T11:06:11;26.70;55.90
29539;DHT22;16482;51.046;4.498;2022-08-19T11:08:37;26.70;55.90
29539;DHT22;16482;51.046;4.498;2022-08-19T11:11:05;26.70;56.00
29539;DHT22;16482;51.046;4.498;2022-08-19T11:13:34;26.70;56.00
29539;DHT22;16482;51.046;4.498;2022-08-19T11:16:06;26.70;56.00
29539;DHT22;16482;51.046;4.498;2022-08-19T11:18:38;26.70;56.00
29539;DHT22;16482;51.046;4.498;2022-08-19T11:21:15;26.70;56.00
29539;DHT22;16482;51.046;4.498;2022-08-19T11:23:43;26.70;56.00
29539;DHT22;16482;51.046;4.498;2022-08-19T11:26:09;26.70;56.10
29539;DHT22;16482;51.046;4.498;2022-08-19T11:28:37;26.70;56.20
29539;DHT22;16482;51.046;4.498;2022-08-19T11:31:04;26.70;56.20
29539;DHT22;16482;51.046;4.498;2022-08-19T11:33:34;26.70;56.20
29539;DHT22;16482;51.046;4.498;2022-08-19T11:36:03;26.70;56.20
29539;DHT22;16482;51.046;4.498;2022-08-19T11:38:29;26.70;56.20
29539;DHT22;16482;51.046;4.498;2022-08-19T11:41:06;26.70;56.30
29539;DHT22;16482;51.046;4.498;2022-08-19T11:43:35;26.70;56.20
29539;DHT22;16482;51.046;4.498;2022-08-19T11:46:08;26.70;56.30
29539;DHT22;16482;51.046;4.498;2022-08-19T11:48:35;26.70;56.20
29539;DHT22;16482;51.046;4.498;2022-08-19T11:51:05;26.70;56.30
29539;DHT22;16482;51.046;4.498;2022-08-19T11:53:35;26.70;56.40
29539;DHT22;16482;51.046;4.498;2022-08-19T11:56:03;26.70;56.20
29539;DHT22;16482;51.046;4.498;2022-08-19T11:58:29;26.70;56.20
29539;DHT22;16482;51.046;4.498;2022-08-19T12:01:09;26.70;56.10
29539;DHT22;16482;51.046;4.498;2022-08-19T12:03:48;26.80;56.00
29539;DHT22;16482;51.046;4.498;2022-08-19T12:06:17;26.80;56.10
29539;DHT22;16482;51.046;4.498;2022-08-19T12:08:45;26.80;56.20
29539;DHT22;16482;51.046;4.498;2022-08-19T12:11:15;26.80;56.10
29539;DHT22;16482;51.046;4.498;2022-08-19T12:13:42;26.80;56.00
29539;DHT22;16482;51.046;4.498;2022-08-19T12:16:20;26.90;56.00
29539;DHT22;16482;51.046;4.498;2022-08-19T12:18:46;26.90;55.90
29539;DHT22;16482;51.046;4.498;2022-08-19T12:21:14;26.90;55.90
29539;DHT22;16482;51.046;4.498;2022-08-19T12:23:50;26.90;56.00
29539;DHT22;16482;51.046;4.498;2022-08-19T12:26:17;26.90;55.90
29539;DHT22;16482;51.046;4.498;2022-08-19T12:28:43;26.90;56.00
29539;DHT22;16482;51.046;4.498;2022-08-19T12:31:09;26.90;56.00
29539;DHT22;16482;51.046;4.498;2022-08-19T12:33:38;26.90;55.90
29539;DHT22;16482;51.046;4.498;2022-08-19T12:36:10;27.00;55.90
29539;DHT22;16482;51.046;4.498;2022-08-19T12:38:36;27.00;55.70
29539;DHT22;16482;51.046;4.498;2022-08-19T12:41:06;27.00;55.70
29539;DHT22;16482;51.046;4.498;2022-08-19T12:43:33;27.00;55.70
29539;DHT22;16482;51.046;4.498;2022-08-19T12:46:00;27.00;55.60
29539;DHT22;16482;51.046;4.498;2022-08-19T12:48:28;27.00;55.50
29539;DHT22;16482;51.046;4.498;2022-08-19T12:50:57;27.00;55.40
29539;DHT22;16482;51.046;4.498;2022-08-19T12:53:23;27.00;55.30
29539;DHT22;16482;51.046;4.498;2022-08-19T12:55:57;27.10;55.40
29539;DHT22;16482;51.046;4.498;2022-08-19T12:58:23;27.10;55.40
29539;DHT22;16482;51.046;4.498;2022-08-19T13:00:49;27.10;55.30
29539;DHT22;16482;51.046;4.498;2022-08-19T13:03:17;27.10;55.30
29539;DHT22;16482;51.046;4.498;2022-08-19T13:05:43;27.10;55.30
29539;DHT22;16482;51.046;4.498;2022-08-19T13:08:12;27.10;55.40
29539;DHT22;16482;51.046;4.498;2022-08-19T13:10:45;27.10;55.30
29539;DHT22;16482;51.046;4.498;2022-08-19T13:13:14;27.10;55.20
29539;DHT22;16482;51.046;4.498;2022-08-19T13:15:41;27.10;55.30
29539;DHT22;16482;51.046;4.498;2022-08-19T13:18:08;27.10;55.30
29539;DHT22;16482;51.046;4.498;2022-08-19T13:20:36;27.00;55.20
29539;DHT22;16482;51.046;4.498;2022-08-19T13:23:11;27.00;55.20
29539;DHT22;16482;51.046;4.498;2022-08-19T13:25:44;27.00;55.30
29539;DHT22;16482;51.046;4.498;2022-08-19T13:28:17;27.00;55.30
29539;DHT22;16482;51.046;4.498;2022-08-19T13:30:47;27.00;55.40
29539;DHT22;16482;51.046;4.498;2022-08-19T13:33:31;27.00;55.30
29539;DHT22;16482;51.046;4.498;2022-08-19T13:35:59;27.00;55.30
29539;DHT22;16482;51.046;4.498;2022-08-19T13:38:27;27.10;55.20
29539;DHT22;16482;51.046;4.498;2022-08-19T13:40:54;27.10;55.10
29539;DHT22;16482;51.046;4.498;2022-08-19T13:43:22;27.00;55.10
29539;DHT22;16482;51.046;4.498;2022-08-19T13:45:51;27.10;55.10
29539;DHT22;16482;51.046;4.498;2022-08-19T13:48:20;27.10;54.90
29539;DHT22;16482;51.046;4.498;2022-08-19T13:50:46;27.10;54.90
29539;DHT22;16482;51.046;4.498;2022-08-19T13:53:16;27.10;54.90
29539;DHT22;16482;51.046;4.498;2022-08-19T13:55:45;27.10;54.90
29539;DHT22;16482;51.046;4.498;2022-08-19T13:58:15;27.10;54.90
29539;DHT22;16482;51.046;4.498;2022-08-19T14:00:45;27.10;54.90
29539;DHT22;16482;51.046;4.498;2022-08-19T14:03:15;27.10;54.80
29539;DHT22;16482;51.046;4.498;2022-08-19T14:05:48;27.10;54.80
29539;DHT22;16482;51.046;4.498;2022-08-19T14:08:14;27.10;54.70
29539;DHT22;16482;51.046;4.498;2022-08-19T14:10:47;27.10;54.80
29539;DHT22;16482;51.046;4.498;2022-08-19T14:13:19;27.10;54.90
29539;DHT22;16482;51.046;4.498;2022-08-19T14:15:45;27.10;54.80
29539;DHT22;16482;51.046;4.498;2022-08-19T14:18:13;27.10;54.90
29539;DHT22;16482;51.046;4.498;2022-08-19T14:20:41;27.00;54.90
29539;DHT22;16482;51.046;4.498;2022-08-19T14:23:15;27.10;54.90
29539;DHT22;16482;51.046;4.498;2022-08-19T14:25:44;27.10;54.90
29539;DHT22;16482;51.046;4.498;2022-08-19T14:28:21;27.10;54.80
29539;DHT22;16482;51.046;4.498;2022-08-19T14:30:47;27.10;54.60
29539;DHT22;16482;51.046;4.498;2022-08-19T14:33:15;27.10;54.70
29539;DHT22;16482;51.046;4.498;2022-08-19T14:35:47;27.10;54.70
29539;DHT22;16482;51.046;4.498;2022-08-19T14:38:18;27.10;54.70
29539;DHT22;16482;51.046;4.498;2022-08-19T14:40:44;27.10;54.70
29539;DHT22;16482;51.046;4.498;2022-08-19T14:43:20;27.10;54.80
29539;DHT22;16482;51.046;4.498;2022-08-19T14:45:47;27.10;54.80
29539;DHT22;16482;51.046;4.498;2022-08-19T14:48:13;27.10;54.80
29539;DHT22;16482;51.046;4.498;2022-08-19T14:50:46;27.10;54.70
29539;DHT22;16482;51.046;4.498;2022-08-19T14:53:16;27.10;54.70
29539;DHT22;16482;51.046;4.498;2022-08-19T14:55:46;27.10;54.70
29539;DHT22;16482;51.046;4.498;2022-08-19T14:58:19;27.10;54.90
29539;DHT22;16482;51.046;4.498;2022-08-19T15:00:48;27.10;54.90
29539;DHT22;16482;51.046;4.498;2022-08-19T15:03:14;27.10;55.00
29539;DHT22;16482;51.046;4.498;2022-08-19T15:05:47;27.10;55.00
29539;DHT22;16482;51.046;4.498;2022-08-19T15:08:16;27.20;55.20
29539;DHT22;16482;51.046;4.498;2022-08-19T15:10:51;27.10;55.20
29539;DHT22;16482;51.046;4.498;2022-08-19T15:13:17;27.10;55.00
29539;DHT22;16482;51.046;4.498;2022-08-19T15:15:45;27.10;55.10
29539;DHT22;16482;51.046;4.498;2022-08-19T15:18:12;27.10;55.20
29539;DHT22;16482;51.046;4.498;2022-08-19T15:20:47;27.10;55.40
29539;DHT22;16482;51.046;4.498;2022-08-19T15:23:17;27.10;55.40
29539;DHT22;16482;51.046;4.498;2022-08-19T15:25:51;27.10;55.30
29539;DHT22;16482;51.046;4.498;2022-08-19T15:28:21;27.10;55.60
29539;DHT22;16482;51.046;4.498;2022-08-19T15:30:48;27.10;55.70
29539;DHT22;16482;51.046;4.498;2022-08-19T15:33:13;27.10;55.80
29539;DHT22;16482;51.046;4.498;2022-08-19T15:35:43;27.10;55.90
29539;DHT22;16482;51.046;4.498;2022-08-19T15:38:19;27.10;55.80
29539;DHT22;16482;51.046;4.498;2022-08-19T15:40:47;27.10;55.80
29539;DHT22;16482;51.046;4.498;2022-08-19T15:43:18;27.10;55.90
29539;DHT22;16482;51.046;4.498;2022-08-19T15:45:46;27.10;55.90
29539;DHT22;16482;51.046;4.498;2022-08-19T15:48:21;27.10;55.90
29539;DHT22;16482;51.046;4.498;2022-08-19T15:50:47;27.10;56.00
29539;DHT22;16482;51.046;4.498;2022-08-19T15:53:16;27.10;55.90
29539;DHT22;16482;51.046;4.498;2022-08-19T15:55:44;27.10;56.00